Time;durP1;ratioP1;P1;durP2;ratioP2;P2;SDS_P1;SDS_P2;PMS_P1;PMS_P2;Temp;Humidity;BMP_temperature;BMP_pressure;BME280_temperature;BME280_humidity;BME280_pressure;Samples;Min_cycle;Max_cycle;Signal;HPM_P1;HPM_P2
2021/05/12 00:01:09;;;;;;;4.03;3.40;;;;;;;;;;4919112;29;20106;-74
2021/05/12 00:03:36;;;;;;;4.72;3.85;;;;;;;;;;4918005;29;20496;-73
2021/05/12 00:06:03;;;;;;;5.57;3.22;;;;;;;;;;4886594;29;20503;-74
2021/05/12 00:08:30;;;;;;;7.43;3.80;;;;;;;;;;4886811;29;20083;-74
2021/05/12 00:10:57;;;;;;;4.90;3.40;;;;;;;;;;4933617;29;20063;-74
2021/05/12 00:13:23;;;;;;;3.90;2.92;;;;;;;;;;4933363;29;20056;-74
2021/05/12 00:15:50;;;;;;;5.95;3.13;;;;;;;;;;4871062;29;20488;-74
2021/05/12 00:18:22;;;;;;;2.85;2.50;;;;;;;;;;4917681;29;20111;-74
2021/05/12 00:20:49;;;;;;;2.90;2.17;;;;;;;;;;4933198;29;20052;-72
2021/05/12 00:23:23;;;;;;;3.95;2.60;;;;;;;;;;4930922;29;20082;-74
2021/05/12 00:25:50;;;;;;;2.67;2.08;;;;;;;;;;4937096;29;20093;-73
2021/05/12 00:28:16;;;;;;;3.60;2.53;;;;;;;;;;4938366;29;20463;-74
2021/05/12 00:30:43;;;;;;;4.22;2.72;;;;;;;;;;4905127;29;20486;-74
2021/05/12 00:33:11;;;;;;;4.88;2.90;;;;;;;;;;4921471;29;20056;-74
2021/05/12 00:35:38;;;;;;;3.17;2.70;;;;;;;;;;4904527;29;20185;-74
2021/05/12 00:38:04;;;;;;;4.07;2.95;;;;;;;;;;4938132;29;20056;-74
2021/05/12 00:40:31;;;;;;;3.80;2.25;;;;;;;;;;4937845;29;20048;-74
2021/05/12 00:42:57;;;;;;;3.08;2.80;;;;;;;;;;4921636;29;20085;-73
2021/05/12 00:45:24;;;;;;;5.05;3.38;;;;;;;;;;4937018;29;20452;-72
2021/05/12 00:47:51;;;;;;;3.47;2.63;;;;;;;;;;4937991;29;20093;-74
2021/05/12 00:50:22;;;;;;;3.22;2.90;;;;;;;;;;4921954;29;20058;-74
2021/05/12 00:52:49;;;;;;;4.22;3.33;;;;;;;;;;4921730;29;20392;-74
2021/05/12 00:55:16;;;;;;;6.05;3.78;;;;;;;;;;4921428;29;20083;-74
2021/05/12 00:57:44;;;;;;;3.83;3.42;;;;;;;;;;4921860;29;20055;-72
2021/05/12 01:00:11;;;;;;;5.38;3.45;;;;;;;;;;4937189;29;20498;-74
2021/05/12 01:02:38;;;;;;;6.25;3.90;;;;;;;;;;4937275;29;20083;-74
2021/05/12 01:05:05;;;;;;;4.18;3.40;;;;;;;;;;4936345;29;20077;-74
2021/05/12 01:07:32;;;;;;;7.30;3.85;;;;;;;;;;4904945;29;20087;-74
2021/05/12 01:09:58;;;;;;;4.95;3.60;;;;;;;;;;4889661;29;20099;-74
2021/05/12 01:12:25;;;;;;;4.55;3.00;;;;;;;;;;4905984;29;20048;-74
2021/05/12 01:14:51;;;;;;;5.80;3.75;;;;;;;;;;4925986;29;20051;-73
2021/05/12 01:17:18;;;;;;;5.05;3.53;;;;;;;;;;4921726;29;20095;-73
2021/05/12 01:19:45;;;;;;;3.28;2.63;;;;;;;;;;4906923;29;20100;-73
2021/05/12 01:22:11;;;;;;;6.60;3.25;;;;;;;;;;4907223;29;20110;-73
2021/05/12 01:24:38;;;;;;;3.95;3.50;;;;;;;;;;4891983;29;20056;-73
2021/05/12 01:27:05;;;;;;;7.25;3.25;;;;;;;;;;4922202;29;20086;-73
2021/05/12 01:29:31;;;;;;;4.57;2.25;;;;;;;;;;4906903;29;20547;-74
2021/05/12 01:31:58;;;;;;;3.97;2.70;;;;;;;;;;4938123;29;20051;-72
2021/05/12 01:34:24;;;;;;;6.88;3.20;;;;;;;;;;4906152;29;20051;-74
2021/05/12 01:36:51;;;;;;;3.90;3.42;;;;;;;;;;4938013;29;20102;-74
2021/05/12 01:39:19;;;;;;;3.65;2.53;;;;;;;;;;4938724;29;20495;-73
2021/05/12 01:41:46;;;;;;;5.43;3.50;;;;;;;;;;4920866;29;20055;-73
2021/05/12 01:44:13;;;;;;;3.53;3.22;;;;;;;;;;4921924;29;20056;-73
2021/05/12 01:46:46;;;;;;;6.68;3.20;;;;;;;;;;4921490;29;20051;-73
2021/05/12 01:49:14;;;;;;;5.50;3.45;;;;;;;;;;4922593;29;20115;-73
2021/05/12 01:51:41;;;;;;;5.28;3.55;;;;;;;;;;4921513;29;20056;-73
2021/05/12 01:54:08;;;;;;;5.38;3.50;;;;;;;;;;4921729;29;20059;-74
2021/05/12 01:56:36;;;;;;;4.82;3.60;;;;;;;;;;4904969;29;20110;-73
2021/05/12 01:59:04;;;;;;;6.57;3.90;;;;;;;;;;4920885;29;20499;-73
2021/05/12 02:01:31;;;;;;;4.65;3.83;;;;;;;;;;4920836;29;20059;-73
2021/05/12 02:04:04;;;;;;;10.00;4.47;;;;;;;;;;4938356;29;20052;-73
2021/05/12 02:06:31;;;;;;;8.85;5.65;;;;;;;;;;4920145;29;20127;-73
2021/05/12 02:09:03;;;;;;;6.43;4.68;;;;;;;;;;4920184;29;20185;-74
2021/05/12 02:11:29;;;;;;;7.18;5.22;;;;;;;;;;4920990;29;20051;-74
2021/05/12 02:13:57;;;;;;;9.05;5.10;;;;;;;;;;4923104;29;20060;-73
2021/05/12 02:16:23;;;;;;;6.90;4.72;;;;;;;;;;4920848;29;20061;-75
2021/05/12 02:26:18;;;;;;;9.25;6.28;;;;;;;;;;4937619;29;20063;-73
2021/05/12 02:28:45;;;;;;;8.85;6.35;;;;;;;;;;4905356;29;20060;-72
2021/05/12 02:31:11;;;;;;;6.32;5.53;;;;;;;;;;4904449;29;20102;-73
2021/05/12 02:33:38;;;;;;;8.40;5.53;;;;;;;;;;4920889;29;20048;-74
2021/05/12 02:36:05;;;;;;;12.10;6.00;;;;;;;;;;4904818;29;20103;-74
2021/05/12 02:38:32;;;;;;;10.18;7.15;;;;;;;;;;4920973;29;20086;-74
2021/05/12 02:40:58;;;;;;;11.60;6.03;;;;;;;;;;4905510;29;20052;-74
2021/05/12 02:43:25;;;;;;;9.82;6.82;;;;;;;;;;4921333;29;20056;-74
2021/05/12 02:45:51;;;;;;;8.73;6.47;;;;;;;;;;4920698;29;20051;-73
2021/05/12 02:48:18;;;;;;;8.80;6.80;;;;;;;;;;4921483;29;20098;-74
2021/05/12 02:50:45;;;;;;;9.40;6.30;;;;;;;;;;4937669;29;20111;-73
2021/05/12 02:53:12;;;;;;;9.38;6.20;;;;;;;;;;4921193;29;20051;-73
2021/05/12 02:55:39;;;;;;;9.32;6.20;;;;;;;;;;4903701;29;20130;-73
2021/05/12 02:58:07;;;;;;;8.23;6.07;;;;;;;;;;4919114;29;20052;-74
2021/05/12 03:00:35;;;;;;;17.80;7.38;;;;;;;;;;4919032;29;20048;-74
2021/05/12 03:03:02;;;;;;;12.95;6.78;;;;;;;;;;4919493;29;20204;-74
2021/05/12 03:05:31;;;;;;;7.13;6.43;;;;;;;;;;4921067;29;20115;-74
2021/05/12 03:07:59;;;;;;;11.82;6.93;;;;;;;;;;4904436;29;20091;-73
2021/05/12 03:10:26;;;;;;;12.52;7.88;;;;;;;;;;4918886;29;20051;-74
2021/05/12 03:12:53;;;;;;;8.63;7.40;;;;;;;;;;4919057;29;20487;-74
2021/05/12 03:15:22;;;;;;;11.52;7.40;;;;;;;;;;4918716;29;20497;-74
2021/05/12 03:17:50;;;;;;;12.10;7.82;;;;;;;;;;4935355;23;20505;-72
2021/05/12 03:20:17;;;;;;;13.50;8.57;;;;;;;;;;4915906;29;20045;-69
2021/05/12 03:22:44;;;;;;;15.88;8.20;;;;;;;;;;4915036;29;20056;-69
2021/05/12 03:25:11;;;;;;;13.85;8.10;;;;;;;;;;4915747;29;20423;-69
2021/05/12 03:27:38;;;;;;;9.73;8.15;;;;;;;;;;4915595;29;20052;-70
2021/05/12 03:30:07;;;;;;;17.20;8.70;;;;;;;;;;4915619;29;20104;-69
2021/05/12 03:32:34;;;;;;;14.80;8.85;;;;;;;;;;4915526;29;20079;-70
2021/05/12 03:35:00;;;;;;;16.13;9.38;;;;;;;;;;4915693;29;20052;-70
2021/05/12 03:37:27;;;;;;;16.60;9.52;;;;;;;;;;4915189;29;20103;-70
2021/05/12 03:39:54;;;;;;;14.32;9.88;;;;;;;;;;4915453;29;20048;-69
2021/05/12 03:42:20;;;;;;;17.20;10.18;;;;;;;;;;4915575;29;20052;-69
2021/05/12 03:44:47;;;;;;;15.18;9.63;;;;;;;;;;4915596;29;20058;-70
2021/05/12 03:47:13;;;;;;;24.30;11.27;;;;;;;;;;4915273;29;20090;-70
2021/05/12 03:49:40;;;;;;;17.48;11.02;;;;;;;;;;4915289;29;20091;-69
2021/05/12 03:52:06;;;;;;;16.88;10.07;;;;;;;;;;4915425;29;20048;-69
2021/05/12 03:54:33;;;;;;;18.55;11.75;;;;;;;;;;4915130;29;20555;-69
2021/05/12 03:57:00;;;;;;;18.85;11.32;;;;;;;;;;4915394;29;20058;-70
2021/05/12 03:59:26;;;;;;;22.90;12.18;;;;;;;;;;4915141;29;20131;-69
2021/05/12 04:01:53;;;;;;;17.30;12.63;;;;;;;;;;4915436;29;20087;-69
2021/05/12 04:04:19;;;;;;;20.17;12.30;;;;;;;;;;4915380;29;20104;-70
2021/05/12 04:06:48;;;;;;;23.05;13.15;;;;;;;;;;4915122;29;20123;-69
2021/05/12 04:09:16;;;;;;;20.50;12.73;;;;;;;;;;4915295;29;20062;-69
2021/05/12 04:11:44;;;;;;;25.13;13.18;;;;;;;;;;4915486;29;20048;-69
2021/05/12 04:14:11;;;;;;;18.17;12.93;;;;;;;;;;4914944;29;20052;-69
2021/05/12 04:16:38;;;;;;;21.90;13.55;;;;;;;;;;4914612;29;20523;-69
2021/05/12 04:19:04;;;;;;;18.92;12.98;;;;;;;;;;4915052;29;20104;-69
2021/05/12 04:21:31;;;;;;;22.83;14.00;;;;;;;;;;4915025;29;20499;-69
2021/05/12 04:23:58;;;;;;;20.33;13.38;;;;;;;;;;4915496;29;20064;-69
2021/05/12 04:26:24;;;;;;;19.10;13.02;;;;;;;;;;4914980;29;20495;-69
2021/05/12 04:28:51;;;;;;;21.05;12.63;;;;;;;;;;4915068;29;20543;-70
2021/05/12 04:31:17;;;;;;;24.70;14.32;;;;;;;;;;4915016;29;20139;-70
2021/05/12 04:33:44;;;;;;;23.67;13.45;;;;;;;;;;4917561;29;20052;-69
2021/05/12 04:36:10;;;;;;;23.73;14.10;;;;;;;;;;4918317;29;20052;-69
2021/05/12 04:38:37;;;;;;;23.02;13.52;;;;;;;;;;4918394;29;20080;-69
2021/05/12 04:41:04;;;;;;;24.27;13.45;;;;;;;;;;4918681;29;20048;-69
2021/05/12 04:43:30;;;;;;;26.20;14.27;;;;;;;;;;4918278;29;20108;-69
2021/05/12 04:45:57;;;;;;;25.30;12.70;;;;;;;;;;4918089;29;20056;-69
2021/05/12 04:48:27;;;;;;;20.85;12.48;;;;;;;;;;4918386;29;20515;-69
2021/05/12 04:50:54;;;;;;;24.63;13.55;;;;;;;;;;4918251;29;20515;-69
2021/05/12 04:53:20;;;;;;;22.33;13.82;;;;;;;;;;4918266;29;20499;-69
2021/05/12 04:55:47;;;;;;;16.88;11.32;;;;;;;;;;4918358;29;20087;-70
2021/05/12 04:58:14;;;;;;;25.42;12.23;;;;;;;;;;4918109;29;20056;-69
2021/05/12 05:00:41;;;;;;;20.83;11.90;;;;;;;;;;4918135;29;20049;-69
2021/05/12 05:03:07;;;;;;;22.98;11.30;;;;;;;;;;4918203;29;20052;-70
2021/05/12 05:05:34;;;;;;;24.58;11.60;;;;;;;;;;4917792;29;20087;-70
2021/05/12 05:08:01;;;;;;;17.73;11.98;;;;;;;;;;4918006;29;20052;-70
2021/05/12 05:10:27;;;;;;;20.25;11.10;;;;;;;;;;4917806;29;20115;-69
2021/05/12 05:12:54;;;;;;;16.77;10.27;;;;;;;;;;4917824;29;20491;-70
2021/05/12 05:15:20;;;;;;;14.65;10.13;;;;;;;;;;4917960;29;20112;-70
2021/05/12 05:17:49;;;;;;;18.95;11.35;;;;;;;;;;4917675;29;20103;-70
2021/05/12 05:20:16;;;;;;;19.52;10.05;;;;;;;;;;4917816;29;20095;-69
2021/05/12 05:22:42;;;;;;;15.50;9.82;;;;;;;;;;4916597;29;20056;-70
2021/05/12 05:25:10;;;;;;;13.45;8.77;;;;;;;;;;4917624;29;20091;-70
2021/05/12 05:27:36;;;;;;;13.32;9.13;;;;;;;;;;4917147;29;20052;-69
2021/05/12 05:30:04;;;;;;;11.02;8.27;;;;;;;;;;4917665;29;20099;-70
2021/05/12 05:32:30;;;;;;;14.75;8.70;;;;;;;;;;4917539;29;20408;-70
2021/05/12 05:34:57;;;;;;;13.23;8.00;;;;;;;;;;4917400;29;20103;-70
2021/05/12 05:37:24;;;;;;;13.65;9.25;;;;;;;;;;4916840;29;20135;-70
2021/05/12 05:39:51;;;;;;;15.68;8.80;;;;;;;;;;4917238;29;20104;-69
2021/05/12 05:42:18;;;;;;;18.75;8.05;;;;;;;;;;4917181;29;20562;-69
2021/05/12 05:44:45;;;;;;;15.10;8.55;;;;;;;;;;4916161;29;20060;-69
2021/05/12 05:47:12;;;;;;;12.48;8.57;;;;;;;;;;4917045;29;20087;-69
2021/05/12 05:49:38;;;;;;;17.08;7.97;;;;;;;;;;4917240;29;20138;-69
2021/05/12 05:52:05;;;;;;;11.68;7.90;;;;;;;;;;4917186;29;20487;-69
2021/05/12 05:54:32;;;;;;;13.20;7.65;;;;;;;;;;4908621;29;20052;-69
2021/05/12 05:57:04;;;;;;;14.45;8.18;;;;;;;;;;4897912;29;20049;-68
2021/05/12 05:59:32;;;;;;;14.25;8.50;;;;;;;;;;4897809;29;20667;-68
2021/05/12 06:01:58;;;;;;;18.38;8.13;;;;;;;;;;4897934;29;20107;-70
2021/05/12 06:04:25;;;;;;;12.00;7.68;;;;;;;;;;4904975;29;20070;-69
2021/05/12 06:06:54;;;;;;;16.80;7.85;;;;;;;;;;4914620;29;20468;-67
2021/05/12 06:09:22;;;;;;;11.65;7.95;;;;;;;;;;4914415;29;20056;-72
2021/05/12 06:11:49;;;;;;;13.82;8.32;;;;;;;;;;4913463;29;20439;-69
2021/05/12 06:14:18;;;;;;;11.60;7.50;;;;;;;;;;4914337;29;20131;-68
2021/05/12 06:16:49;;;;;;;11.32;7.88;;;;;;;;;;4913704;29;20079;-68
2021/05/12 06:19:15;;;;;;;12.25;7.70;;;;;;;;;;4914779;29;20558;-69
2021/05/12 06:21:42;;;;;;;13.15;7.43;;;;;;;;;;4914495;29;20100;-69
2021/05/12 06:24:08;;;;;;;13.05;7.90;;;;;;;;;;4914635;29;20075;-68
2021/05/12 06:26:39;;;;;;;9.77;6.72;;;;;;;;;;4913760;29;20568;-68
2021/05/12 06:29:06;;;;;;;9.38;6.47;;;;;;;;;;4913978;29;20459;-68
2021/05/12 06:31:33;;;;;;;10.40;6.70;;;;;;;;;;4914116;29;20083;-68
2021/05/12 06:34:01;;;;;;;10.50;6.45;;;;;;;;;;4914272;29;20441;-69
2021/05/12 06:36:27;;;;;;;18.23;10.38;;;;;;;;;;4913947;29;20060;-68
2021/05/12 06:39:09;;;;;;;9.25;6.03;;;;;;;;;;4914133;29;20055;-69
2021/05/12 06:41:36;;;;;;;8.38;5.65;;;;;;;;;;4913940;29;20048;-69
2021/05/12 06:44:03;;;;;;;8.85;5.68;;;;;;;;;;4913705;29;20147;-69
2021/05/12 06:46:30;;;;;;;8.18;5.25;;;;;;;;;;4913835;29;20087;-69
2021/05/12 06:48:57;;;;;;;9.30;5.50;;;;;;;;;;4908233;29;20612;-72
2021/05/12 06:51:23;;;;;;;7.22;5.43;;;;;;;;;;4893709;29;20053;-70
2021/05/12 06:53:50;;;;;;;7.85;5.18;;;;;;;;;;4895425;29;20064;-71
2021/05/12 06:56:18;;;;;;;8.43;5.00;;;;;;;;;;4894249;29;20104;-69
2021/05/12 06:58:44;;;;;;;6.55;5.28;;;;;;;;;;4895027;29;20057;-69
2021/05/12 07:01:14;;;;;;;8.43;4.60;;;;;;;;;;4895592;29;20104;-70
2021/05/12 07:03:41;;;;;;;8.02;4.63;;;;;;;;;;4893816;29;20172;-69
2021/05/12 07:06:07;;;;;;;7.38;5.70;;;;;;;;;;4894825;29;20052;-70
2021/05/12 07:08:37;;;;;;;4.90;4.13;;;;;;;;;;4894341;29;20238;-69
2021/05/12 07:11:04;;;;;;;7.75;4.78;;;;;;;;;;4894677;29;20063;-69
2021/05/12 07:13:33;;;;;;;5.75;4.20;;;;;;;;;;4898670;29;20471;-69
2021/05/12 07:16:01;;;;;;;6.63;4.35;;;;;;;;;;4913583;29;20048;-68
2021/05/12 07:18:28;;;;;;;6.63;3.95;;;;;;;;;;4913481;29;20520;-69
2021/05/12 07:20:54;;;;;;;5.50;3.42;;;;;;;;;;4913781;29;20112;-69
2021/05/12 07:23:23;;;;;;;5.65;3.40;;;;;;;;;;4913075;29;20142;-69
2021/05/12 07:25:51;;;;;;;4.85;4.25;;;;;;;;;;4913922;29;20467;-68
2021/05/12 07:28:17;;;;;;;7.32;3.80;;;;;;;;;;4915196;29;20052;-69
2021/05/12 07:30:45;;;;;;;7.88;3.70;;;;;;;;;;4913811;29;20086;-70
2021/05/12 07:33:12;;;;;;;4.55;3.83;;;;;;;;;;4915390;29;20052;-71
2021/05/12 07:35:38;;;;;;;8.02;3.50;;;;;;;;;;4914671;29;20463;-71
2021/05/12 07:38:05;;;;;;;9.10;4.47;;;;;;;;;;4915642;29;20103;-69
2021/05/12 07:40:34;;;;;;;6.30;4.30;;;;;;;;;;4915444;29;20123;-70
2021/05/12 07:43:08;;;;;;;14.73;4.53;;;;;;;;;;4915292;29;20056;-69
2021/05/12 07:45:37;;;;;;;7.93;3.83;;;;;;;;;;4895921;29;20102;-69
2021/05/12 07:48:05;;;;;;;7.18;3.50;;;;;;;;;;4896651;29;20431;-70
2021/05/12 07:50:32;;;;;;;6.30;3.70;;;;;;;;;;4895397;29;20081;-69
2021/05/12 07:53:00;;;;;;;5.53;3.38;;;;;;;;;;4896434;29;20104;-69
2021/05/12 07:55:28;;;;;;;6.75;3.65;;;;;;;;;;4895822;29;20060;-69
2021/05/12 07:57:55;;;;;;;10.13;3.70;;;;;;;;;;4896149;29;20077;-69
2021/05/12 08:00:23;;;;;;;7.38;3.95;;;;;;;;;;4896231;29;20128;-69
2021/05/12 08:02:49;;;;;;;8.38;3.80;;;;;;;;;;4895155;29;20568;-69
2021/05/12 08:05:16;;;;;;;7.00;3.88;;;;;;;;;;4896271;29;20405;-69
2021/05/12 08:07:43;;;;;;;6.40;4.00;;;;;;;;;;4896668;29;20744;-69
2021/05/12 08:10:10;;;;;;;5.40;3.22;;;;;;;;;;4900142;29;20125;-69
2021/05/12 08:12:37;;;;;;;7.60;3.42;;;;;;;;;;4899980;29;20480;-69
2021/05/12 08:15:04;;;;;;;6.35;3.15;;;;;;;;;;4900136;29;20471;-69
2021/05/12 08:17:31;;;;;;;6.63;3.20;;;;;;;;;;4899725;29;20060;-70
2021/05/12 08:19:59;;;;;;;11.05;3.28;;;;;;;;;;4900043;29;20113;-69
2021/05/12 08:22:26;;;;;;;7.35;3.13;;;;;;;;;;4906528;29;20048;-69
2021/05/12 08:24:53;;;;;;;7.90;2.78;;;;;;;;;;4919030;29;20120;-70
2021/05/12 08:27:19;;;;;;;7.10;2.83;;;;;;;;;;4918489;29;20412;-70
2021/05/12 08:29:46;;;;;;;6.38;3.20;;;;;;;;;;4918869;29;20098;-70
2021/05/12 08:32:16;;;;;;;8.20;3.38;;;;;;;;;;4918548;29;20044;-70
2021/05/12 08:34:43;;;;;;;7.25;2.95;;;;;;;;;;4918729;29;20083;-70
2021/05/12 08:37:09;;;;;;;14.15;3.05;;;;;;;;;;4917882;29;20108;-69
2021/05/12 08:39:36;;;;;;;7.30;2.92;;;;;;;;;;4901668;29;20111;-69
2021/05/12 08:42:03;;;;;;;4.90;3.30;;;;;;;;;;4918583;29;20108;-69
2021/05/12 08:44:33;;;;;;;8.98;2.95;;;;;;;;;;4918179;29;20056;-69
2021/05/12 08:47:01;;;;;;;6.07;2.90;;;;;;;;;;4918244;29;20052;-69
2021/05/12 08:49:28;;;;;;;6.18;3.03;;;;;;;;;;4917130;29;20078;-69
2021/05/12 08:51:55;;;;;;;6.07;2.83;;;;;;;;;;4913456;29;20095;-70
2021/05/12 08:54:22;;;;;;;3.65;2.75;;;;;;;;;;4916750;29;20052;-69
2021/05/12 08:56:49;;;;;;;4.72;2.83;;;;;;;;;;4901405;29;20056;-69
2021/05/12 08:59:16;;;;;;;6.95;2.58;;;;;;;;;;4917681;29;20112;-69
2021/05/12 09:01:43;;;;;;;5.32;2.97;;;;;;;;;;4917964;29;20048;-69
2021/05/12 09:04:09;;;;;;;3.00;2.55;;;;;;;;;;4916207;29;20052;-72
2021/05/12 09:06:36;;;;;;;5.80;3.00;;;;;;;;;;4899912;29;20377;-69
2021/05/12 09:09:07;;;;;;;4.95;2.90;;;;;;;;;;4897857;29;20052;-73
2021/05/12 09:11:35;;;;;;;4.90;3.03;;;;;;;;;;4930779;29;20048;-72
2021/05/12 09:14:02;;;;;;;3.65;2.78;;;;;;;;;;4905072;29;20135;-72
2021/05/12 09:16:33;;;;;;;5.43;2.90;;;;;;;;;;4898250;29;20424;-72
2021/05/12 09:19:10;;;;;;;15.85;3.63;;;;;;;;;;4899208;29;20056;-73
2021/05/12 09:21:51;;;;;;;5.20;3.10;;;;;;;;;;4911449;29;20056;-73
2021/05/12 09:24:35;;;;;;;5.50;3.17;;;;;;;;;;4917656;29;20067;-73
2021/05/12 09:27:23;;;;;;;5.25;2.90;;;;;;;;;;4914726;29;20134;-70
2021/05/12 09:29:59;;;;;;;6.63;3.00;;;;;;;;;;4905539;29;20088;-69
2021/05/12 09:32:44;;;;;;;4.00;2.65;;;;;;;;;;4906803;29;20103;-68
2021/05/12 09:35:13;;;;;;;8.45;3.30;;;;;;;;;;4903986;29;20044;-68
2021/05/12 09:37:44;;;;;;;5.53;2.88;;;;;;;;;;4905274;29;20488;-67
2021/05/12 09:40:12;;;;;;;5.65;3.55;;;;;;;;;;4904386;29;20091;-70
2021/05/12 09:42:40;;;;;;;6.28;2.83;;;;;;;;;;4904312;29;20056;-69
2021/05/12 09:45:20;;;;;;;8.57;3.13;;;;;;;;;;4905375;29;20052;-70
2021/05/12 09:47:53;;;;;;;4.07;2.90;;;;;;;;;;4907065;29;20048;-68
2021/05/12 09:50:30;;;;;;;4.55;2.42;;;;;;;;;;4905431;29;20044;-69
2021/05/12 09:52:59;;;;;;;6.43;3.03;;;;;;;;;;4905102;29;20115;-70
2021/05/12 09:55:40;;;;;;;6.25;2.75;;;;;;;;;;4905845;29;20056;-70
2021/05/12 09:58:22;;;;;;;9.48;2.83;;;;;;;;;;4908488;29;20063;-68
2021/05/12 10:00:50;;;;;;;5.07;2.97;;;;;;;;;;4907668;29;20523;-69
2021/05/12 10:03:23;;;;;;;5.93;2.95;;;;;;;;;;4906193;29;20112;-69
2021/05/12 10:06:02;;;;;;;4.72;2.90;;;;;;;;;;4904647;29;20048;-70
2021/05/12 10:08:30;;;;;;;4.93;2.80;;;;;;;;;;4906195;29;20427;-70
2021/05/12 10:10:59;;;;;;;3.33;2.63;;;;;;;;;;4903268;29;20048;-70
2021/05/12 10:13:25;;;;;;;7.45;2.92;;;;;;;;;;4908460;29;20080;-68
2021/05/12 10:15:52;;;;;;;6.88;3.00;;;;;;;;;;4903865;29;20069;-69
2021/05/12 10:18:19;;;;;;;4.30;2.95;;;;;;;;;;4912373;29;20119;-70
2021/05/12 10:20:45;;;;;;;3.33;2.60;;;;;;;;;;4907867;29;20056;-72
2021/05/12 10:23:12;;;;;;;4.55;2.95;;;;;;;;;;4905041;29;20056;-71
2021/05/12 10:25:39;;;;;;;6.30;2.42;;;;;;;;;;4905331;29;20218;-71
2021/05/12 10:28:07;;;;;;;5.00;2.58;;;;;;;;;;4907470;29;20044;-71
2021/05/12 10:30:34;;;;;;;9.15;3.55;;;;;;;;;;4910268;29;20511;-68
2021/05/12 10:33:01;;;;;;;4.45;2.95;;;;;;;;;;4896771;29;20076;-68
2021/05/12 10:35:38;;;;;;;3.58;2.97;;;;;;;;;;4907362;29;20111;-70
2021/05/12 10:38:07;;;;;;;2.70;2.38;;;;;;;;;;4907431;29;20103;-69
2021/05/12 10:40:41;;;;;;;7.55;3.10;;;;;;;;;;4902624;29;20060;-68
2021/05/12 10:48:31;;;;;;;4.97;2.58;;;;;;;;;;4901151;29;20080;-69
2021/05/12 10:51:03;;;;;;;8.15;2.90;;;;;;;;;;4907676;29;20053;-70
2021/05/12 10:53:32;;;;;;;4.25;2.58;;;;;;;;;;4906404;29;20056;-69
2021/05/12 10:55:58;;;;;;;5.40;2.55;;;;;;;;;;4902124;29;20059;-69
2021/05/12 10:58:31;;;;;;;4.90;3.30;;;;;;;;;;4908898;29;20048;-69
2021/05/12 11:01:09;;;;;;;6.20;2.38;;;;;;;;;;4903417;29;20104;-73
2021/05/12 11:03:52;;;;;;;7.80;3.00;;;;;;;;;;4903920;29;20056;-70
2021/05/12 11:06:23;;;;;;;6.43;3.17;;;;;;;;;;4906810;29;20447;-70
2021/05/12 11:09:08;;;;;;;5.30;2.95;;;;;;;;;;4903879;29;20461;-72
2021/05/12 11:11:43;;;;;;;4.95;2.70;;;;;;;;;;4904539;29;20049;-72
2021/05/12 11:14:31;;;;;;;5.85;2.60;;;;;;;;;;4904620;29;20056;-72
2021/05/12 11:17:15;;;;;;;4.68;2.60;;;;;;;;;;4905435;29;20060;-68
2021/05/12 11:33:28;;;;;;;5.25;2.58;;;;;;;;;;4900999;29;20048;-70
2021/05/12 11:36:03;;;;;;;5.05;2.70;;;;;;;;;;4907494;29;20048;-73
2021/05/12 11:38:29;;;;;;;6.63;3.25;;;;;;;;;;4906399;29;20055;-74
2021/05/12 11:41:05;;;;;;;5.85;2.50;;;;;;;;;;4910440;29;20080;-72
2021/05/12 11:43:47;;;;;;;4.47;2.50;;;;;;;;;;4905546;29;20448;-72
2021/05/12 11:46:22;;;;;;;5.18;2.75;;;;;;;;;;4905003;29;20886;-74
2021/05/12 11:48:53;;;;;;;7.35;3.42;;;;;;;;;;4916555;29;20584;-73
2021/05/12 11:51:39;;;;;;;6.35;2.75;;;;;;;;;;4913038;29;20079;-73
2021/05/12 11:54:17;;;;;;;5.80;2.60;;;;;;;;;;4902485;29;20048;-72
2021/05/12 11:56:46;;;;;;;4.68;2.33;;;;;;;;;;4912539;29;20057;-75
2021/05/12 11:59:19;;;;;;;6.07;2.80;;;;;;;;;;4912968;29;20056;-74
2021/05/12 12:01:49;;;;;;;9.68;3.72;;;;;;;;;;4912332;29;20052;-72
2021/05/12 12:04:32;;;;;;;5.82;2.90;;;;;;;;;;4899821;29;20044;-74
2021/05/12 12:06:58;;;;;;;3.92;2.38;;;;;;;;;;4906603;29;20099;-72
2021/05/12 12:09:27;;;;;;;3.55;2.53;;;;;;;;;;4901390;29;20053;-72
2021/05/12 12:11:55;;;;;;;5.25;3.03;;;;;;;;;;4907016;29;20052;-73
2021/05/12 12:14:30;;;;;;;4.85;3.47;;;;;;;;;;4911317;29;20472;-74
2021/05/12 12:16:57;;;;;;;4.32;2.70;;;;;;;;;;4917853;29;20104;-73
2021/05/12 12:19:25;;;;;;;4.85;3.45;;;;;;;;;;4910478;29;20071;-72
2021/05/12 12:21:54;;;;;;;6.70;2.70;;;;;;;;;;4902037;29;20186;-72
2021/05/12 12:24:26;;;;;;;3.08;2.38;;;;;;;;;;4906851;29;20056;-72
2021/05/12 12:26:58;;;;;;;8.50;2.60;;;;;;;;;;4893987;29;20527;-75
2021/05/12 12:29:28;;;;;;;4.40;3.03;;;;;;;;;;4901998;29;20104;-71
2021/05/12 12:31:56;;;;;;;4.88;2.55;;;;;;;;;;4905705;29;20048;-73
2021/05/12 12:34:46;;;;;;;4.50;2.50;;;;;;;;;;4900827;29;20583;-71
2021/05/12 12:37:18;;;;;;;4.70;2.78;;;;;;;;;;4901475;29;20053;-72
2021/05/12 12:39:54;;;;;;;4.30;3.13;;;;;;;;;;4905875;29;20044;-75
2021/05/12 12:42:28;;;;;;;6.10;3.40;;;;;;;;;;4919283;29;20100;-74
2021/05/12 12:44:58;;;;;;;4.60;2.47;;;;;;;;;;4913566;29;20059;-75
2021/05/12 12:47:26;;;;;;;3.78;2.33;;;;;;;;;;4916985;29;20513;-71
2021/05/12 12:50:11;;;;;;;6.75;3.38;;;;;;;;;;4900766;29;20056;-71
2021/05/12 12:52:40;;;;;;;6.03;3.35;;;;;;;;;;4904410;29;20337;-71
2021/05/12 12:55:09;;;;;;;5.95;2.58;;;;;;;;;;4905525;29;20052;-72
2021/05/12 12:58:08;;;;;;;4.07;2.85;;;;;;;;;;4921286;29;20108;-76
2021/05/12 13:00:36;;;;;;;5.22;3.10;;;;;;;;;;4909538;29;20052;-74
2021/05/12 13:03:16;;;;;;;5.10;3.05;;;;;;;;;;4907829;29;20078;-74
2021/05/12 13:05:50;;;;;;;5.50;4.43;;;;;;;;;;4904511;29;20111;-74
2021/05/12 13:08:28;;;;;;;7.47;4.28;;;;;;;;;;4904528;29;20053;-72
2021/05/12 13:11:04;;;;;;;4.60;2.97;;;;;;;;;;4890672;29;20056;-73
2021/05/12 13:13:41;;;;;;;5.22;3.20;;;;;;;;;;4905728;29;20057;-71
2021/05/12 13:16:23;;;;;;;9.35;3.20;;;;;;;;;;4907480;29;20555;-71
2021/05/12 13:18:56;;;;;;;5.60;3.00;;;;;;;;;;4921003;29;20404;-73
2021/05/12 13:21:26;;;;;;;4.88;3.20;;;;;;;;;;4909907;29;20138;-73
2021/05/12 13:24:00;;;;;;;3.70;2.80;;;;;;;;;;4906171;29;20079;-75
2021/05/12 13:26:32;;;;;;;8.82;3.20;;;;;;;;;;4910513;29;20048;-75
2021/05/12 13:28:59;;;;;;;7.28;3.15;;;;;;;;;;4919932;29;20459;-74
2021/05/12 13:31:28;;;;;;;4.43;2.70;;;;;;;;;;4906039;29;20345;-74
2021/05/12 13:33:56;;;;;;;7.25;3.13;;;;;;;;;;4909463;29;20050;-74
2021/05/12 13:36:22;;;;;;;7.60;3.17;;;;;;;;;;4906785;29;20048;-75
2021/05/12 13:38:49;;;;;;;5.22;3.00;;;;;;;;;;4904574;29;20051;-73
2021/05/12 13:41:15;;;;;;;3.30;2.15;;;;;;;;;;4903549;29;20551;-73
2021/05/12 13:43:42;;;;;;;4.90;3.10;;;;;;;;;;4907347;29;20076;-73
2021/05/12 13:46:09;;;;;;;4.90;2.70;;;;;;;;;;4919763;29;20056;-74
2021/05/12 13:48:35;;;;;;;9.98;3.60;;;;;;;;;;4904928;29;20455;-74
2021/05/12 13:51:04;;;;;;;5.97;3.22;;;;;;;;;;4912825;29;20060;-73
2021/05/12 13:56:17;;;;;;;3.17;2.45;;;;;;;;;;4905086;29;20052;-76
2021/05/12 13:58:57;;;;;;;4.35;2.50;;;;;;;;;;4911969;29;20115;-74
2021/05/12 14:04:09;;;;;;;3.45;2.45;;;;;;;;;;4907849;29;20044;-73
2021/05/12 14:06:36;;;;;;;4.20;2.25;;;;;;;;;;4906172;29;20415;-77
2021/05/12 14:09:29;;;;;;;5.65;2.90;;;;;;;;;;4900060;29;20052;-77
2021/05/12 14:12:02;;;;;;;5.60;2.40;;;;;;;;;;4906965;29;20472;-73
2021/05/12 14:19:26;;;;;;;5.55;2.92;;;;;;;;;;4905566;29;20119;-74
2021/05/12 14:21:55;;;;;;;8.00;3.00;;;;;;;;;;4907379;29;20630;-72
2021/05/12 14:24:31;;;;;;;7.13;2.90;;;;;;;;;;4906690;29;20044;-73
2021/05/12 14:27:00;;;;;;;4.38;2.58;;;;;;;;;;4903410;29;20127;-73
2021/05/12 14:29:40;;;;;;;5.45;3.17;;;;;;;;;;4902134;29;20518;-72
2021/05/12 14:32:09;;;;;;;4.10;2.90;;;;;;;;;;4905022;29;20055;-74
2021/05/12 14:34:38;;;;;;;5.78;3.55;;;;;;;;;;4911544;29;20060;-72
2021/05/12 14:37:05;;;;;;;6.57;2.90;;;;;;;;;;4901292;29;20099;-71
2021/05/12 14:39:34;;;;;;;6.88;3.17;;;;;;;;;;4908173;29;20417;-69
2021/05/12 14:42:03;;;;;;;6.50;2.75;;;;;;;;;;4909349;29;20454;-71
2021/05/12 14:44:30;;;;;;;23.00;4.35;;;;;;;;;;4922818;29;20107;-72
2021/05/12 14:46:56;;;;;;;5.30;2.70;;;;;;;;;;4922477;29;20107;-72
2021/05/12 14:49:25;;;;;;;4.82;2.33;;;;;;;;;;4924054;29;20118;-72
2021/05/12 14:54:49;;;;;;;6.38;2.22;;;;;;;;;;4932848;29;20048;-72
2021/05/12 15:00:05;;;;;;;5.40;2.53;;;;;;;;;;4925524;29;20107;-71
2021/05/12 15:07:48;;;;;;;2.42;1.25;;;;;;;;;;4930480;29;20080;-72
2021/05/12 15:10:15;;;;;;;1.77;1.15;;;;;;;;;;4914758;29;20055;-72
2021/05/12 15:12:41;;;;;;;5.18;1.48;;;;;;;;;;4933541;29;20111;-72
2021/05/12 15:15:08;;;;;;;1.85;1.50;;;;;;;;;;4934667;29;20106;-72
2021/05/12 15:17:37;;;;;;;5.47;1.60;;;;;;;;;;4962254;23;20435;-72
2021/05/12 15:20:04;;;;;;;1.52;1.35;;;;;;;;;;4953301;29;20086;-71
2021/05/12 15:22:31;;;;;;;9.43;2.30;;;;;;;;;;4937409;29;20043;-71
2021/05/12 15:24:59;;;;;;;3.58;1.55;;;;;;;;;;4954493;29;20047;-71
2021/05/12 15:27:25;;;;;;;4.13;2.90;;;;;;;;;;4937134;29;20102;-71
2021/05/12 15:29:52;;;;;;;5.70;1.75;;;;;;;;;;4954615;29;20105;-71
2021/05/12 15:32:19;;;;;;;4.90;2.53;;;;;;;;;;4955175;29;20490;-71
2021/05/12 15:34:45;;;;;;;3.80;1.77;;;;;;;;;;4954538;29;20055;-71
2021/05/12 15:37:12;;;;;;;5.32;1.73;;;;;;;;;;4936829;29;20055;-71